Time,TemperatureF,DewpointF,PressureIn,WindDirection,WindDirectionDegrees,WindSpeedMPH,WindSpeedGustMPH,Humidity,HourlyPrecipIn,Conditions,Clouds,dailyrainin,SoftwareType,DateUTC
2013-03-19 00:01:00,65.6,63.8,29.84,SSW,192,2.0,2.0,94,0.00,,,0.00,Wunderground v.1.15,2013-03-19 04:01:00,
2013-03-19 00:02:00,65.5,63.7,29.84,South,188,0.0,2.0,94,0.00,,,0.00,Wunderground v.1.15,2013-03-19 04:02:00,
2013-03-19 00:05:00,65.5,63.7,29.84,WSW,245,0.0,2.0,94,0.00,,,0.00,Wunderground v.1.15,2013-03-19 04:05:00,
2013-03-19 00:06:00,65.5,63.7,29.84,WSW,251,3.0,3.0,94,0.00,,,0.00,Wunderground v.1.15,2013-03-19 04:06:00,
2013-03-19 00:12:00,65.5,63.7,29.84,WNW,283,2.0,2.0,94,0.00,,,0.00,Wunderground v.1.15,2013-03-19 04:12:00,
2013-03-19 00:18:00,65.5,63.7,29.87,WNW,295,0.0,2.0,94,0.00,,,0.00,Wunderground v.1.15,2013-03-19 04:18:00,
2013-03-19 00:24:00,65.5,63.7,29.87,NW,307,0.0,1.0,94,0.00,,,0.00,Wunderground v.1.15,2013-03-19 04:24:00,
2013-03-19 00:29:00,65.5,63.7,29.88,WNW,289,1.0,1.0,94,0.00,,,0.00,Wunderground v.1.15,2013-03-19 04:29:00,
2013-03-19 00:35:00,65.5,63.7,29.88,WNW,289,0.0,0.0,94,0.00,,,0.00,Wunderground v.1.15,2013-03-19 04:35:00,
2013-03-19 00:40:00,65.5,63.7,29.88,WNW,289,0.0,0.0,94,0.00,,,0.00,Wunderground v.1.15,2013-03-19 04:40:00,
2013-03-19 00:45:00,65.3,63.5,29.89,WNW,290,0.0,0.0,94,0.00,,,0.00,Wunderground v.1.15,2013-03-19 04:45:00,
2013-03-19 00:51:00,65.3,63.5,29.89,WNW,290,0.0,0.0,94,0.00,,,0.00,Wunderground v.1.15,2013-03-19 04:51:00,
2013-03-19 00:56:00,65.3,63.5,29.89,NW,311,0.0,0.0,94,0.00,,,0.00,Wunderground v.1.15,2013-03-19 04:56:00,
2013-03-19 01:02:00,65.3,63.5,29.89,NW,324,1.0,1.0,94,0.00,,,0.00,Wunderground v.1.15,2013-03-19 05:02:00,
2013-03-19 01:08:00,65.3,63.8,29.89,NW,323,0.0,3.0,95,0.00,,,0.00,Wunderground v.1.15,2013-03-19 05:08:00,
2013-03-19 01:13:00,65.3,63.8,29.89,NNW,332,0.0,1.0,95,0.00,,,0.00,Wunderground v.1.15,2013-03-19 05:13:00,
2013-03-19 01:19:00,65.3,63.8,29.89,NW,326,0.0,1.0,95,0.00,,,0.00,Wunderground v.1.15,2013-03-19 05:19:00,
2013-03-19 01:25:00,65.3,63.8,29.89,NW,326,0.0,0.0,95,0.00,,,0.00,Wunderground v.1.15,2013-03-19 05:25:00,
2013-03-19 01:30:00,65.2,63.7,29.89,NW,326,0.0,0.0,95,0.00,,,0.00,Wunderground v.1.15,2013-03-19 05:30:00,
2013-03-19 01:35:00,65.2,63.7,29.89,NW,326,0.0,0.0,95,0.00,,,0.00,Wunderground v.1.15,2013-03-19 05:35:00,
2013-03-19 01:41:00,65.0,63.5,29.89,NW,326,0.0,0.0,95,0.00,,,0.00,Wunderground v.1.15,2013-03-19 05:41:00,
2013-03-19 01:46:00,65.0,63.5,29.88,NW,317,0.0,0.0,95,0.00,,,0.00,Wunderground v.1.15,2013-03-19 05:46:00,
2013-03-19 01:52:00,65.0,63.5,29.88,South,181,0.0,0.0,95,0.00,,,0.00,Wunderground v.1.15,2013-03-19 05:52:00,
2013-03-19 01:57:00,64.8,63.3,29.88,South,181,0.0,0.0,95,0.00,,,0.00,Wunderground v.1.15,2013-03-19 05:57:00,
2013-03-19 02:02:00,64.8,63.3,29.87,South,181,0.0,0.0,95,0.00,,,0.00,Wunderground v.1.15,2013-03-19 06:02:00,
2013-03-19 02:07:00,64.8,63.3,29.87,South,181,0.0,0.0,95,0.00,,,0.00,Wunderground v.1.15,2013-03-19 06:07:00,
2013-03-19 02:12:00,64.7,63.2,29.87,South,181,0.0,0.0,95,0.00,,,0.00,Wunderground v.1.15,2013-03-19 06:12:00,
2013-03-19 02:17:00,64.7,63.2,29.89,South,181,0.0,0.0,95,0.00,,,0.00,Wunderground v.1.15,2013-03-19 06:17:00,
2013-03-19 02:22:00,64.5,63.0,29.89,South,181,0.0,0.0,95,0.00,,,0.00,Wunderground v.1.15,2013-03-19 06:22:00,
2013-03-19 02:27:00,64.5,63.0,29.89,South,181,0.0,0.0,95,0.00,,,0.00,Wunderground v.1.15,2013-03-19 06:27:00,
2013-03-19 02:32:00,64.5,63.0,29.89,South,181,0.0,0.0,95,0.00,,,0.00,Wunderground v.1.15,2013-03-19 06:32:00,
2013-03-19 02:37:00,64.3,62.8,29.89,South,181,0.0,0.0,95,0.00,,,0.00,Wunderground v.1.15,2013-03-19 06:37:00,
2013-03-19 02:42:00,64.3,63.1,29.89,South,181,0.0,0.0,96,0.00,,,0.00,Wunderground v.1.15,2013-03-19 06:42:00,
2013-03-19 02:47:00,64.2,63.0,29.88,South,181,0.0,0.0,96,0.00,,,0.00,Wunderground v.1.15,2013-03-19 06:47:00,
2013-03-19 02:52:00,64.2,63.0,29.88,South,181,0.0,0.0,96,0.00,,,0.00,Wunderground v.1.15,2013-03-19 06:52:00,
2013-03-19 02:57:00,64.0,62.8,29.88,South,181,0.0,0.0,96,0.00,,,0.00,Wunderground v.1.15,2013-03-19 06:57:00,
2013-03-19 03:02:00,64.0,62.8,29.87,South,181,0.0,0.0,96,0.00,,,0.00,Wunderground v.1.15,2013-03-19 07:02:00,
2013-03-19 03:07:00,64.0,62.8,29.87,South,181,0.0,0.0,96,0.00,,,0.00,Wunderground v.1.15,2013-03-19 07:07:00,
2013-03-19 03:12:00,63.9,62.7,29.87,South,181,0.0,0.0,96,0.00,,,0.00,Wunderground v.1.15,2013-03-19 07:12:00,
2013-03-19 03:17:00,63.9,62.7,29.87,South,181,0.0,0.0,96,0.00,,,0.00,Wunderground v.1.15,2013-03-19 07:17:00,
2013-03-19 03:22:00,63.9,62.7,29.87,South,181,0.0,0.0,96,0.00,,,0.00,Wunderground v.1.15,2013-03-19 07:22:00,
2013-03-19 03:27:00,63.7,62.5,29.87,South,181,0.0,0.0,96,0.00,,,0.00,Wunderground v.1.15,2013-03-19 07:27:00,
2013-03-19 03:33:00,63.7,62.5,29.87,South,181,0.0,0.0,96,0.00,,,0.00,Wunderground v.1.15,2013-03-19 07:33:00,
2013-03-19 03:38:00,63.7,62.5,29.87,South,181,0.0,0.0,96,0.00,,,0.00,Wunderground v.1.15,2013-03-19 07:38:00,
2013-03-19 03:43:00,63.5,62.3,29.87,South,181,0.0,0.0,96,0.00,,,0.00,Wunderground v.1.15,2013-03-19 07:43:00,
2013-03-19 03:48:00,63.4,62.2,29.87,South,181,0.0,0.0,96,0.00,,,0.00,Wunderground v.1.15,2013-03-19 07:48:00,
2013-03-19 03:53:00,63.4,62.2,29.87,South,181,0.0,0.0,96,0.00,,,0.00,Wunderground v.1.15,2013-03-19 07:53:00,
2013-03-19 03:58:00,63.2,62.0,29.87,South,181,0.0,0.0,96,0.00,,,0.00,Wunderground v.1.15,2013-03-19 07:58:00,
2013-03-19 04:03:00,63.2,62.0,29.87,South,181,0.0,0.0,96,0.00,,,0.00,Wunderground v.1.15,2013-03-19 08:03:00,
2013-03-19 04:08:00,63.2,62.0,29.87,South,181,0.0,0.0,96,0.00,,,0.00,Wunderground v.1.15,2013-03-19 08:08:00,
2013-03-19 04:13:00,63.2,62.0,29.87,South,181,0.0,0.0,96,0.00,,,0.00,Wunderground v.1.15,2013-03-19 08:13:00,
2013-03-19 04:18:00,63.2,62.0,29.87,South,181,0.0,0.0,96,0.00,,,0.00,Wunderground v.1.15,2013-03-19 08:18:00,
2013-03-19 04:23:00,63.2,62.0,29.87,South,181,0.0,0.0,96,0.00,,,0.00,Wunderground v.1.15,2013-03-19 08:23:00,
2013-03-19 04:28:00,63.2,62.3,29.87,South,181,0.0,0.0,97,0.00,,,0.00,Wunderground v.1.15,2013-03-19 08:28:00,
2013-03-19 04:33:00,63.2,62.3,29.88,South,181,0.0,0.0,97,0.00,,,0.00,Wunderground v.1.15,2013-03-19 08:33:00,
2013-03-19 04:39:00,63.2,62.3,29.88,South,181,0.0,0.0,97,0.00,,,0.00,Wunderground v.1.15,2013-03-19 08:39:00,
2013-03-19 04:44:00,63.2,62.3,29.89,South,181,0.0,0.0,97,0.00,,,0.00,Wunderground v.1.15,2013-03-19 08:44:00,
2013-03-19 04:49:00,63.4,62.5,29.89,South,181,0.0,0.0,97,0.00,,,0.00,Wunderground v.1.15,2013-03-19 08:49:00,
2013-03-19 04:54:00,63.5,62.6,29.89,South,181,0.0,0.0,97,0.00,,,0.00,Wunderground v.1.15,2013-03-19 08:54:00,
2013-03-19 04:59:00,63.7,62.8,29.89,South,181,0.0,0.0,97,0.00,,,0.00,Wunderground v.1.15,2013-03-19 08:59:00,
2013-03-19 05:04:00,63.5,62.6,29.89,South,181,0.0,0.0,97,0.00,,,0.00,Wunderground v.1.15,2013-03-19 09:04:00,
2013-03-19 05:09:00,63.5,62.6,29.89,South,181,0.0,0.0,97,0.00,,,0.00,Wunderground v.1.15,2013-03-19 09:09:00,
2013-03-19 05:14:00,63.5,62.6,29.89,South,181,0.0,0.0,97,0.00,,,0.00,Wunderground v.1.15,2013-03-19 09:14:00,
2013-03-19 05:19:00,63.5,62.6,29.89,South,181,0.0,0.0,97,0.00,,,0.00,Wunderground v.1.15,2013-03-19 09:19:00,
2013-03-19 05:24:00,63.4,62.5,29.89,South,181,0.0,0.0,97,0.00,,,0.00,Wunderground v.1.15,2013-03-19 09:24:00,
2013-03-19 05:29:00,63.4,62.5,29.88,South,181,0.0,0.0,97,0.00,,,0.00,Wunderground v.1.15,2013-03-19 09:29:00,
2013-03-19 05:34:00,63.4,62.5,29.88,South,181,0.0,0.0,97,0.00,,,0.00,Wunderground v.1.15,2013-03-19 09:34:00,
2013-03-19 05:39:00,63.4,62.5,29.88,South,181,0.0,0.0,97,0.00,,,0.00,Wunderground v.1.15,2013-03-19 09:39:00,
2013-03-19 05:44:00,63.4,62.8,29.89,South,181,0.0,0.0,98,0.00,,,0.00,Wunderground v.1.15,2013-03-19 09:44:00,
2013-03-19 05:49:00,63.5,62.9,29.89,South,181,0.0,0.0,98,0.00,,,0.00,Wunderground v.1.15,2013-03-19 09:49:00,
2013-03-19 05:54:00,63.5,62.9,29.89,South,181,0.0,0.0,98,0.00,,,0.00,Wunderground v.1.15,2013-03-19 09:54:00,
2013-03-19 05:59:00,63.5,62.9,29.89,South,181,0.0,0.0,98,0.00,,,0.00,Wunderground v.1.15,2013-03-19 09:59:00,
2013-03-19 06:04:00,63.4,62.8,29.89,South,181,0.0,0.0,98,0.00,,,0.00,Wunderground v.1.15,2013-03-19 10:04:00,
2013-03-19 06:09:00,63.4,62.8,29.89,South,181,0.0,0.0,98,0.00,,,0.00,Wunderground v.1.15,2013-03-19 10:09:00,
2013-03-19 06:14:00,63.2,62.6,29.91,South,181,0.0,0.0,98,0.00,,,0.00,Wunderground v.1.15,2013-03-19 10:14:00,
2013-03-19 06:19:00,63.2,62.6,29.91,South,181,0.0,0.0,98,0.00,,,0.00,Wunderground v.1.15,2013-03-19 10:19:00,
2013-03-19 06:24:00,63.2,62.6,29.91,South,181,0.0,0.0,98,0.00,,,0.00,Wunderground v.1.15,2013-03-19 10:24:00,
2013-03-19 06:29:00,63.2,62.6,29.91,South,181,0.0,0.0,98,0.00,,,0.00,Wunderground v.1.15,2013-03-19 10:29:00,
2013-03-19 06:34:00,63.4,62.8,29.91,South,181,0.0,0.0,98,0.00,,,0.00,Wunderground v.1.15,2013-03-19 10:34:00,
2013-03-19 06:39:00,63.2,62.6,29.91,South,181,0.0,0.0,98,0.00,,,0.00,Wunderground v.1.15,2013-03-19 10:39:00,
2013-03-19 06:44:00,63.2,62.6,29.90,South,181,0.0,0.0,98,0.00,,,0.00,Wunderground v.1.15,2013-03-19 10:44:00,
2013-03-19 06:49:00,63.2,62.6,29.90,South,181,0.0,0.0,98,0.00,,,0.00,Wunderground v.1.15,2013-03-19 10:49:00,
2013-03-19 06:54:00,63.1,62.5,29.90,South,181,0.0,0.0,98,0.00,,,0.00,Wunderground v.1.15,2013-03-19 10:54:00,
2013-03-19 06:59:00,63.1,62.5,29.91,South,181,0.0,0.0,98,0.00,,,0.00,Wunderground v.1.15,2013-03-19 10:59:00,
2013-03-19 07:04:00,62.9,62.3,29.91,South,181,0.0,0.0,98,0.00,,,0.00,Wunderground v.1.15,2013-03-19 11:04:00,
2013-03-19 07:10:00,62.9,62.3,29.91,South,181,0.0,0.0,98,0.00,,,0.00,Wunderground v.1.15,2013-03-19 11:10:00,
2013-03-19 07:15:00,62.9,62.3,29.90,South,181,0.0,0.0,98,0.00,,,0.00,Wunderground v.1.15,2013-03-19 11:15:00,
2013-03-19 07:20:00,62.7,62.1,29.90,South,181,0.0,0.0,98,0.00,,,0.00,Wunderground v.1.15,2013-03-19 11:20:00,
2013-03-19 07:25:00,62.7,62.1,29.90,South,181,0.0,0.0,98,0.00,,,0.00,Wunderground v.1.15,2013-03-19 11:25:00,
2013-03-19 07:30:00,62.7,62.1,29.91,South,181,0.0,0.0,98,0.00,,,0.00,Wunderground v.1.15,2013-03-19 11:30:00,
2013-03-19 07:35:00,62.6,62.0,29.91,South,181,0.0,0.0,98,0.00,,,0.00,Wunderground v.1.15,2013-03-19 11:35:00,
2013-03-19 07:40:00,62.6,62.0,29.91,South,181,0.0,0.0,98,0.00,,,0.00,Wunderground v.1.15,2013-03-19 11:40:00,
2013-03-19 07:45:00,62.6,62.0,29.90,South,181,0.0,0.0,98,0.00,,,0.00,Wunderground v.1.15,2013-03-19 11:45:00,
2013-03-19 07:50:00,62.6,62.0,29.90,South,181,0.0,0.0,98,0.00,,,0.00,Wunderground v.1.15,2013-03-19 11:50:00,
2013-03-19 07:55:00,62.6,62.0,29.90,South,181,0.0,0.0,98,0.00,,,0.00,Wunderground v.1.15,2013-03-19 11:55:00,
2013-03-19 08:00:00,62.6,62.0,29.91,South,181,0.0,0.0,98,0.00,,,0.00,Wunderground v.1.15,2013-03-19 12:00:00,
2013-03-19 08:05:00,62.6,62.0,29.91,South,181,0.0,0.0,98,0.00,,,0.00,Wunderground v.1.15,2013-03-19 12:05:00,
2013-03-19 08:10:00,62.6,62.0,29.91,South,181,0.0,0.0,98,0.00,,,0.00,Wunderground v.1.15,2013-03-19 12:10:00,
2013-03-19 08:15:00,62.7,62.1,29.91,South,181,0.0,0.0,98,0.00,,,0.00,Wunderground v.1.15,2013-03-19 12:15:00,
2013-03-19 08:21:00,62.9,62.6,29.91,South,181,0.0,0.0,99,0.00,,,0.00,Wunderground v.1.15,2013-03-19 12:21:00,
2013-03-19 08:26:00,63.1,62.8,29.91,South,181,0.0,0.0,99,0.00,,,0.00,Wunderground v.1.15,2013-03-19 12:26:00,
2013-03-19 08:31:00,63.2,62.9,29.92,South,181,0.0,0.0,99,0.00,,,0.00,Wunderground v.1.15,2013-03-19 12:31:00,
2013-03-19 08:36:00,63.4,63.1,29.92,South,181,0.0,0.0,99,0.00,,,0.00,Wunderground v.1.15,2013-03-19 12:36:00,
2013-03-19 08:41:00,63.5,63.2,29.92,South,181,0.0,0.0,99,0.00,,,0.00,Wunderground v.1.15,2013-03-19 12:41:00,
2013-03-19 08:46:00,63.7,63.4,29.92,South,181,0.0,0.0,99,0.00,,,0.00,Wunderground v.1.15,2013-03-19 12:46:00,
2013-03-19 08:51:00,63.9,63.6,29.92,South,181,0.0,0.0,99,0.00,,,0.00,Wunderground v.1.15,2013-03-19 12:51:00,
2013-03-19 08:56:00,64.2,63.9,29.92,South,181,0.0,0.0,99,0.00,,,0.00,Wunderground v.1.15,2013-03-19 12:56:00,
2013-03-19 09:02:00,64.3,64.0,29.93,South,181,0.0,0.0,99,0.00,,,0.00,Wunderground v.1.15,2013-03-19 13:02:00,
2013-03-19 09:06:00,64.7,64.4,29.93,South,181,0.0,0.0,99,0.00,,,0.00,Wunderground v.1.15,2013-03-19 13:06:00,
2013-03-19 09:11:00,64.8,64.5,29.93,SW,233,0.0,0.0,99,0.00,,,0.00,Wunderground v.1.15,2013-03-19 13:11:00,
2013-03-19 09:17:00,65.2,64.9,29.93,SW,233,0.0,0.0,99,0.00,,,0.00,Wunderground v.1.15,2013-03-19 13:17:00,
2013-03-19 09:22:00,65.5,65.2,29.93,SW,233,0.0,0.0,99,0.00,,,0.00,Wunderground v.1.15,2013-03-19 13:22:00,
2013-03-19 19:07:00,74.7,64.3,29.87,ESE,114,0.0,0.0,70,0.00,,,0.00,Wunderground v.1.15,2013-03-19 23:07:00,
2013-03-19 19:12:00,74.4,64.4,29.87,ESE,104,0.0,2.0,71,0.00,,,0.00,Wunderground v.1.15,2013-03-19 23:12:00,
2013-03-19 19:17:00,74.0,64.4,29.87,East,94,0.0,4.0,72,0.00,,,0.00,Wunderground v.1.15,2013-03-19 23:17:00,
2013-03-19 19:22:00,73.5,64.3,29.87,East,97,0.0,0.0,73,0.00,,,0.00,Wunderground v.1.15,2013-03-19 23:22:00,
2013-03-19 19:27:00,73.2,64.4,29.87,East,97,0.0,0.0,74,0.00,,,0.00,Wunderground v.1.15,2013-03-19 23:27:00,
2013-03-19 19:32:00,73.0,64.6,29.88,East,97,0.0,0.0,75,0.00,,,0.00,Wunderground v.1.15,2013-03-19 23:32:00,
2013-03-19 19:37:00,72.7,64.7,29.88,East,97,0.0,0.0,76,0.00,,,0.00,Wunderground v.1.15,2013-03-19 23:37:00,
2013-03-19 19:42:00,72.3,64.3,29.88,East,97,0.0,0.0,76,0.00,,,0.00,Wunderground v.1.15,2013-03-19 23:42:00,
2013-03-19 19:48:00,72.0,64.4,29.88,East,97,0.0,0.0,77,0.00,,,0.00,Wunderground v.1.15,2013-03-19 23:48:00,
2013-03-19 19:53:00,71.8,64.6,29.88,East,97,0.0,0.0,78,0.00,,,0.00,Wunderground v.1.15,2013-03-19 23:53:00,
2013-03-19 19:58:00,71.5,64.3,29.88,East,97,0.0,0.0,78,0.00,,,0.00,Wunderground v.1.15,2013-03-19 23:58:00,
2013-03-19 20:03:00,71.1,64.3,29.89,East,97,0.0,0.0,79,0.00,,,0.00,Wunderground v.1.15,2013-03-20 00:03:00,
2013-03-19 20:08:00,70.9,64.4,29.89,East,97,0.0,0.0,80,0.00,,,0.00,Wunderground v.1.15,2013-03-20 00:08:00,
2013-03-19 20:13:00,70.6,64.5,29.89,East,97,0.0,0.0,81,0.00,,,0.00,Wunderground v.1.15,2013-03-20 00:13:00,
2013-03-19 20:18:00,70.4,64.3,29.89,East,97,0.0,0.0,81,0.00,,,0.00,Wunderground v.1.15,2013-03-20 00:18:00,
2013-03-19 20:23:00,70.3,64.5,29.89,East,97,0.0,0.0,82,0.00,,,0.00,Wunderground v.1.15,2013-03-20 00:23:00,
2013-03-19 20:28:00,70.1,64.3,29.89,East,97,0.0,0.0,82,0.00,,,0.00,Wunderground v.1.15,2013-03-20 00:28:00,
2013-03-19 20:33:00,69.9,64.5,29.89,East,97,0.0,1.0,83,0.00,,,0.00,Wunderground v.1.15,2013-03-20 00:33:00,
2013-03-19 20:38:00,69.9,64.8,29.89,East,97,0.0,1.0,84,0.00,,,0.00,Wunderground v.1.15,2013-03-20 00:38:00,
2013-03-19 20:43:00,69.8,64.7,29.89,East,97,0.0,0.0,84,0.00,,,0.00,Wunderground v.1.15,2013-03-20 00:43:00,
2013-03-19 20:48:00,69.6,64.5,29.89,East,97,0.0,0.0,84,0.00,,,0.00,Wunderground v.1.15,2013-03-20 00:48:00,
2013-03-19 20:53:00,69.4,64.7,29.89,East,97,0.0,0.0,85,0.00,,,0.00,Wunderground v.1.15,2013-03-20 00:53:00,
2013-03-19 20:58:00,69.3,64.6,29.89,East,97,0.0,0.0,85,0.00,,,0.00,Wunderground v.1.15,2013-03-20 00:58:00,
2013-03-19 21:03:00,69.1,64.4,29.89,East,97,0.0,0.0,85,0.00,,,0.00,Wunderground v.1.15,2013-03-20 01:03:00,
2013-03-19 21:08:00,69.1,64.7,29.89,East,97,0.0,0.0,86,0.00,,,0.00,Wunderground v.1.15,2013-03-20 01:08:00,
2013-03-19 21:13:00,68.9,64.9,29.89,East,97,0.0,0.0,87,0.00,,,0.00,Wunderground v.1.15,2013-03-20 01:13:00,
2013-03-19 21:18:00,68.8,64.8,29.89,East,97,0.0,0.0,87,0.00,,,0.00,Wunderground v.1.15,2013-03-20 01:18:00,
2013-03-19 21:23:00,68.6,64.6,29.89,East,97,0.0,0.0,87,0.00,,,0.00,Wunderground v.1.15,2013-03-20 01:23:00,
2013-03-19 21:28:00,68.4,64.7,29.89,East,97,0.0,0.0,88,0.00,,,0.00,Wunderground v.1.15,2013-03-20 01:28:00,
2013-03-19 21:33:00,68.4,64.7,29.90,East,97,0.0,0.0,88,0.00,,,0.00,Wunderground v.1.15,2013-03-20 01:33:00,
2013-03-19 21:38:00,68.3,64.9,29.90,East,97,0.0,0.0,89,0.00,,,0.00,Wunderground v.1.15,2013-03-20 01:38:00,
2013-03-19 21:43:00,68.3,64.9,29.90,East,97,0.0,0.0,89,0.00,,,0.00,Wunderground v.1.15,2013-03-20 01:43:00,
2013-03-19 21:48:00,68.3,64.9,29.90,East,97,0.0,0.0,89,0.00,,,0.00,Wunderground v.1.15,2013-03-20 01:48:00,
2013-03-19 21:53:00,68.1,65.1,29.90,East,97,0.0,0.0,90,0.00,,,0.00,Wunderground v.1.15,2013-03-20 01:53:00,
2013-03-19 21:58:00,68.1,65.1,29.90,East,97,0.0,0.0,90,0.00,,,0.00,Wunderground v.1.15,2013-03-20 01:58:00,
2013-03-19 22:03:00,68.1,65.1,29.90,East,97,0.0,0.0,90,0.00,,,0.00,Wunderground v.1.15,2013-03-20 02:03:00,
2013-03-19 22:08:00,67.9,64.9,29.90,East,97,0.0,0.0,90,0.00,,,0.00,Wunderground v.1.15,2013-03-20 02:08:00,
2013-03-19 22:13:00,67.9,65.2,29.90,East,97,0.0,0.0,91,0.00,,,0.00,Wunderground v.1.15,2013-03-20 02:13:00,
2013-03-19 22:18:00,67.8,65.1,29.90,East,97,0.0,0.0,91,0.00,,,0.00,Wunderground v.1.15,2013-03-20 02:18:00,
2013-03-19 22:23:00,67.8,65.1,29.90,East,97,0.0,0.0,91,0.00,,,0.00,Wunderground v.1.15,2013-03-20 02:23:00,
2013-03-19 22:28:00,67.6,64.9,29.90,East,97,0.0,0.0,91,0.00,,,0.00,Wunderground v.1.15,2013-03-20 02:28:00,
2013-03-19 22:33:00,67.4,64.7,29.90,East,97,0.0,0.0,91,0.00,,,0.00,Wunderground v.1.15,2013-03-20 02:33:00,
2013-03-19 22:38:00,67.3,64.9,29.90,East,97,0.0,0.0,92,0.00,,,0.00,Wunderground v.1.15,2013-03-20 02:38:00,
2013-03-19 22:43:00,67.3,64.9,29.90,East,97,0.0,0.0,92,0.00,,,0.00,Wunderground v.1.15,2013-03-20 02:43:00,
2013-03-19 22:48:00,67.1,64.7,29.91,East,97,0.0,0.0,92,0.00,,,0.00,Wunderground v.1.15,2013-03-20 02:48:00,
2013-03-19 22:54:00,66.9,64.5,29.91,East,97,0.0,0.0,92,0.00,,,0.00,Wunderground v.1.15,2013-03-20 02:54:00,
2013-03-19 22:59:00,66.8,64.4,29.91,East,97,0.0,0.0,92,0.00,,,0.00,Wunderground v.1.15,2013-03-20 02:59:00,
2013-03-19 23:04:00,66.4,64.0,29.91,East,97,0.0,0.0,92,0.00,,,0.00,Wunderground v.1.15,2013-03-20 03:04:00,
2013-03-19 23:09:00,66.3,63.9,29.91,East,97,0.0,0.0,92,0.00,,,0.00,Wunderground v.1.15,2013-03-20 03:09:00,
2013-03-19 23:14:00,66.1,63.7,29.91,East,97,0.0,0.0,92,0.00,,,0.00,Wunderground v.1.15,2013-03-20 03:14:00,
2013-03-19 23:20:00,66.0,63.6,29.91,East,97,0.0,0.0,92,0.00,,,0.00,Wunderground v.1.15,2013-03-20 03:20:00,
2013-03-19 23:25:00,65.8,63.4,29.91,East,97,0.0,0.0,92,0.00,,,0.00,Wunderground v.1.15,2013-03-20 03:25:00,
2013-03-19 23:30:00,65.6,63.2,29.91,East,97,0.0,0.0,92,0.00,,,0.00,Wunderground v.1.15,2013-03-20 03:30:00,
2013-03-19 23:35:00,65.5,63.1,29.91,East,97,0.0,0.0,92,0.00,,,0.00,Wunderground v.1.15,2013-03-20 03:35:00,
2013-03-19 23:40:00,65.3,62.9,29.91,East,97,0.0,0.0,92,0.00,,,0.00,Wunderground v.1.15,2013-03-20 03:40:00,
2013-03-19 23:45:00,65.2,62.8,29.92,East,97,0.0,0.0,92,0.00,,,0.00,Wunderground v.1.15,2013-03-20 03:45:00,
2013-03-19 23:50:00,65.0,62.6,29.92,East,97,0.0,0.0,92,0.00,,,0.00,Wunderground v.1.15,2013-03-20 03:50:00,
2013-03-19 23:55:00,64.8,62.7,29.92,East,97,0.0,0.0,93,0.00,,,0.00,Wunderground v.1.15,2013-03-20 03:55:00,